Portada
METAR-TAF:

METAR-TAF

Aeroports :

Aeroport de Castelló

Castelló de la Plana, Espanya

latitud: 40-12-35N, longitud: 0-04-11E, altitud: 360 m

Observació

L'informe es va fer fa 22 minuts, a les 04:00 UTC
Vent 16 kt del Est
Temperatura 13°C
Humitat 94%
Pressió 1016 hPa
Visibilitat: 3600 m
Cel ennuvolat a una alçada de 200 ft
Cel ennuvolat a una alçada de 600 ft
Cel cobert a una alçada de 1100 ft
pluja, boirina

METAR: LECH 190400Z AUTO 08016KT 3600 RA BR BKN002 BKN006 OVC011 13/12 Q1016

Hora: 06:22 (04:22 UTC)


TAF: manca

Observacions i pronòstics meteorològics de més de 4000 aeroports (METAR i TAF).

Les estacions disponibles són els punts grocs i vermells al mapa.

Posi el ratolí al punt desitjat per veure el nom de l'estació.

Feu clic per veure les observacions i els pronòstics meteorològics.

Per canviar el mapa: feu clic els botons verds amb una creu de color negre per apropar; al botó verd amb un guió per allunyar la imatge; o en les fletxes verdes per a mapes adjacents.


METAR-TAF: